sensor_id;sensor_type;location;lat;lon;timestamp;P1;durP1;ratioP1;P2;durP2;ratioP2
73841;SDS011;62184;52.006;5.924;2023-04-01T00:00:35;2.60;;;0.82;;
73841;SDS011;62184;52.006;5.924;2023-04-01T00:03:01;2.88;;;0.95;;
73841;SDS011;62184;52.006;5.924;2023-04-01T00:05:28;2.80;;;1.00;;
73841;SDS011;62184;52.006;5.924;2023-04-01T00:07:54;2.72;;;1.00;;
73841;SDS011;62184;52.006;5.924;2023-04-01T00:10:21;2.70;;;1.08;;
73841;SDS011;62184;52.006;5.924;2023-04-01T00:12:47;2.80;;;1.10;;
73841;SDS011;62184;52.006;5.924;2023-04-01T00:15:14;2.80;;;1.10;;
73841;SDS011;62184;52.006;5.924;2023-04-01T00:17:43;2.90;;;1.30;;
73841;SDS011;62184;52.006;5.924;2023-04-01T00:20:10;2.90;;;1.00;;
73841;SDS011;62184;52.006;5.924;2023-04-01T00:22:38;2.80;;;0.90;;
73841;SDS011;62184;52.006;5.924;2023-04-01T00:25:04;2.70;;;0.90;;
73841;SDS011;62184;52.006;5.924;2023-04-01T00:27:32;3.30;;;1.42;;
73841;SDS011;62184;52.006;5.924;2023-04-01T00:29:58;2.80;;;1.00;;
73841;SDS011;62184;52.006;5.924;2023-04-01T00:32:25;2.83;;;1.25;;
73841;SDS011;62184;52.006;5.924;2023-04-01T00:34:54;2.80;;;0.90;;
73841;SDS011;62184;52.006;5.924;2023-04-01T00:37:20;2.70;;;0.90;;
73841;SDS011;62184;52.006;5.924;2023-04-01T00:39:47;2.80;;;1.10;;
73841;SDS011;62184;52.006;5.924;2023-04-01T00:42:13;2.95;;;1.10;;
73841;SDS011;62184;52.006;5.924;2023-04-01T00:44:40;2.80;;;1.27;;
73841;SDS011;62184;52.006;5.924;2023-04-01T00:47:07;2.77;;;0.90;;
73841;SDS011;62184;52.006;5.924;2023-04-01T00:49:35;2.80;;;1.10;;
73841;SDS011;62184;52.006;5.924;2023-04-01T00:52:10;2.83;;;1.23;;
73841;SDS011;62184;52.006;5.924;2023-04-01T00:54:41;2.80;;;0.90;;
73841;SDS011;62184;52.006;5.924;2023-04-01T00:57:14;2.80;;;1.00;;
73841;SDS011;62184;52.006;5.924;2023-04-01T00:59:48;2.70;;;0.88;;
73841;SDS011;62184;52.006;5.924;2023-04-01T01:02:18;2.80;;;1.00;;
73841;SDS011;62184;52.006;5.924;2023-04-01T01:04:45;2.70;;;0.90;;
73841;SDS011;62184;52.006;5.924;2023-04-01T01:07:17;2.92;;;1.00;;
73841;SDS011;62184;52.006;5.924;2023-04-01T01:09:58;2.70;;;0.98;;
73841;SDS011;62184;52.006;5.924;2023-04-01T01:12:38;2.80;;;0.90;;
73841;SDS011;62184;52.006;5.924;2023-04-01T01:15:12;3.00;;;1.20;;
73841;SDS011;62184;52.006;5.924;2023-04-01T01:17:49;3.00;;;1.08;;
73841;SDS011;62184;52.006;5.924;2023-04-01T01:20:40;3.07;;;1.00;;
73841;SDS011;62184;52.006;5.924;2023-04-01T01:23:36;2.92;;;1.23;;
73841;SDS011;62184;52.006;5.924;2023-04-01T01:26:34;2.70;;;1.00;;
73841;SDS011;62184;52.006;5.924;2023-04-01T01:32:46;2.80;;;1.10;;
73841;SDS011;62184;52.006;5.924;2023-04-01T01:35:35;2.90;;;1.10;;
73841;SDS011;62184;52.006;5.924;2023-04-01T01:38:10;2.80;;;1.10;;
73841;SDS011;62184;52.006;5.924;2023-04-01T01:40:42;2.80;;;1.10;;
73841;SDS011;62184;52.006;5.924;2023-04-01T01:43:14;2.70;;;1.10;;
73841;SDS011;62184;52.006;5.924;2023-04-01T01:45:48;2.90;;;1.10;;
73841;SDS011;62184;52.006;5.924;2023-04-01T01:48:21;2.78;;;1.08;;
73841;SDS011;62184;52.006;5.924;2023-04-01T01:50:53;2.80;;;1.10;;
73841;SDS011;62184;52.006;5.924;2023-04-01T01:53:20;2.80;;;1.10;;
73841;SDS011;62184;52.006;5.924;2023-04-01T01:55:47;2.70;;;0.90;;
73841;SDS011;62184;52.006;5.924;2023-04-01T01:58:15;2.60;;;0.70;;
73841;SDS011;62184;52.006;5.924;2023-04-01T02:00:50;2.70;;;0.73;;
73841;SDS011;62184;52.006;5.924;2023-04-01T02:03:21;2.85;;;1.08;;
73841;SDS011;62184;52.006;5.924;2023-04-01T02:05:55;2.50;;;0.60;;
73841;SDS011;62184;52.006;5.924;2023-04-01T02:08:26;2.60;;;0.70;;
73841;SDS011;62184;52.006;5.924;2023-04-01T02:11:01;2.40;;;0.50;;
73841;SDS011;62184;52.006;5.924;2023-04-01T02:13:33;2.50;;;0.60;;
73841;SDS011;62184;52.006;5.924;2023-04-01T02:16:09;2.50;;;0.60;;
73841;SDS011;62184;52.006;5.924;2023-04-01T02:18:42;2.72;;;0.90;;
73841;SDS011;62184;52.006;5.924;2023-04-01T02:21:16;2.70;;;0.70;;
73841;SDS011;62184;52.006;5.924;2023-04-01T02:23:47;2.90;;;0.60;;
73841;SDS011;62184;52.006;5.924;2023-04-01T02:26:15;2.72;;;0.70;;
73841;SDS011;62184;52.006;5.924;2023-04-01T02:28:43;2.60;;;0.68;;
73841;SDS011;62184;52.006;5.924;2023-04-01T02:31:13;3.85;;;1.10;;
73841;SDS011;62184;52.006;5.924;2023-04-01T02:33:41;3.67;;;1.02;;
73841;SDS011;62184;52.006;5.924;2023-04-01T02:36:10;3.05;;;0.60;;
73841;SDS011;62184;52.006;5.924;2023-04-01T02:38:41;2.70;;;0.60;;
73841;SDS011;62184;52.006;5.924;2023-04-01T02:41:10;2.50;;;0.60;;
73841;SDS011;62184;52.006;5.924;2023-04-01T02:43:37;2.65;;;0.70;;
73841;SDS011;62184;52.006;5.924;2023-04-01T02:46:03;2.88;;;0.77;;
73841;SDS011;62184;52.006;5.924;2023-04-01T02:48:30;2.70;;;0.60;;
73841;SDS011;62184;52.006;5.924;2023-04-01T02:50:56;2.60;;;0.60;;
73841;SDS011;62184;52.006;5.924;2023-04-01T02:53:23;2.70;;;0.90;;
73841;SDS011;62184;52.006;5.924;2023-04-01T02:55:52;2.63;;;0.75;;
73841;SDS011;62184;52.006;5.924;2023-04-01T02:58:18;2.60;;;0.60;;
73841;SDS011;62184;52.006;5.924;2023-04-01T03:00:45;2.90;;;0.70;;
73841;SDS011;62184;52.006;5.924;2023-04-01T03:03:11;2.60;;;0.60;;
73841;SDS011;62184;52.006;5.924;2023-04-01T03:05:38;2.60;;;0.60;;
73841;SDS011;62184;52.006;5.924;2023-04-01T03:08:05;2.53;;;0.60;;
73841;SDS011;62184;52.006;5.924;2023-04-01T03:10:31;2.50;;;0.60;;
73841;SDS011;62184;52.006;5.924;2023-04-01T03:13:00;2.60;;;0.70;;
73841;SDS011;62184;52.006;5.924;2023-04-01T03:15:27;2.60;;;0.80;;
73841;SDS011;62184;52.006;5.924;2023-04-01T03:17:53;2.50;;;0.60;;
73841;SDS011;62184;52.006;5.924;2023-04-01T03:20:20;2.60;;;0.60;;
73841;SDS011;62184;52.006;5.924;2023-04-01T03:22:46;2.60;;;0.68;;
73841;SDS011;62184;52.006;5.924;2023-04-01T03:25:13;2.60;;;0.60;;
73841;SDS011;62184;52.006;5.924;2023-04-01T03:27:39;2.40;;;0.60;;
73841;SDS011;62184;52.006;5.924;2023-04-01T03:30:09;2.40;;;0.50;;
73841;SDS011;62184;52.006;5.924;2023-04-01T03:32:36;2.50;;;0.60;;
73841;SDS011;62184;52.006;5.924;2023-04-01T03:35:03;2.60;;;0.70;;
73841;SDS011;62184;52.006;5.924;2023-04-01T03:37:30;2.60;;;0.70;;
73841;SDS011;62184;52.006;5.924;2023-04-01T03:39:57;2.50;;;0.70;;
73841;SDS011;62184;52.006;5.924;2023-04-01T03:42:23;2.58;;;0.70;;
73841;SDS011;62184;52.006;5.924;2023-04-01T03:44:50;2.70;;;0.80;;
73841;SDS011;62184;52.006;5.924;2023-04-01T03:47:19;2.78;;;0.68;;
73841;SDS011;62184;52.006;5.924;2023-04-01T03:49:45;2.70;;;0.70;;
73841;SDS011;62184;52.006;5.924;2023-04-01T03:52:11;2.60;;;0.70;;
73841;SDS011;62184;52.006;5.924;2023-04-01T03:54:38;2.60;;;0.70;;
73841;SDS011;62184;52.006;5.924;2023-04-01T03:57:04;2.60;;;0.60;;
73841;SDS011;62184;52.006;5.924;2023-04-01T03:59:31;2.78;;;0.80;;
73841;SDS011;62184;52.006;5.924;2023-04-01T04:01:58;2.60;;;0.70;;
73841;SDS011;62184;52.006;5.924;2023-04-01T04:04:27;2.50;;;0.60;;
73841;SDS011;62184;52.006;5.924;2023-04-01T04:06:54;2.70;;;0.80;;
73841;SDS011;62184;52.006;5.924;2023-04-01T04:09:21;2.70;;;0.70;;
73841;SDS011;62184;52.006;5.924;2023-04-01T04:11:48;2.70;;;0.80;;
73841;SDS011;62184;52.006;5.924;2023-04-01T04:14:15;2.60;;;0.60;;
73841;SDS011;62184;52.006;5.924;2023-04-01T04:16:41;2.60;;;0.70;;
73841;SDS011;62184;52.006;5.924;2023-04-01T04:19:08;2.42;;;0.65;;
73841;SDS011;62184;52.006;5.924;2023-04-01T04:21:37;2.50;;;0.60;;
73841;SDS011;62184;52.006;5.924;2023-04-01T04:24:03;2.60;;;0.70;;
73841;SDS011;62184;52.006;5.924;2023-04-01T04:26:31;2.67;;;0.70;;
73841;SDS011;62184;52.006;5.924;2023-04-01T04:28:57;2.90;;;0.90;;
73841;SDS011;62184;52.006;5.924;2023-04-01T04:31:24;2.60;;;0.80;;
73841;SDS011;62184;52.006;5.924;2023-04-01T04:33:52;2.78;;;0.73;;
73841;SDS011;62184;52.006;5.924;2023-04-01T04:36:19;2.60;;;0.65;;
73841;SDS011;62184;52.006;5.924;2023-04-01T04:38:49;2.67;;;0.67;;
73841;SDS011;62184;52.006;5.924;2023-04-01T04:41:16;2.60;;;0.68;;
73841;SDS011;62184;52.006;5.924;2023-04-01T04:43:48;2.50;;;0.68;;
73841;SDS011;62184;52.006;5.924;2023-04-01T04:46:16;2.60;;;0.63;;
73841;SDS011;62184;52.006;5.924;2023-04-01T04:48:43;3.00;;;0.70;;
73841;SDS011;62184;52.006;5.924;2023-04-01T04:51:12;2.50;;;0.60;;
73841;SDS011;62184;52.006;5.924;2023-04-01T04:53:40;2.40;;;0.60;;
73841;SDS011;62184;52.006;5.924;2023-04-01T04:56:10;2.45;;;0.63;;
73841;SDS011;62184;52.006;5.924;2023-04-01T04:58:36;2.50;;;0.60;;
73841;SDS011;62184;52.006;5.924;2023-04-01T05:01:07;2.60;;;0.70;;
73841;SDS011;62184;52.006;5.924;2023-04-01T05:03:35;2.50;;;0.63;;
73841;SDS011;62184;52.006;5.924;2023-04-01T05:06:03;2.60;;;0.60;;
73841;SDS011;62184;52.006;5.924;2023-04-01T05:08:31;2.50;;;0.60;;
73841;SDS011;62184;52.006;5.924;2023-04-01T05:10:58;2.53;;;0.60;;
73841;SDS011;62184;52.006;5.924;2023-04-01T05:13:27;2.40;;;0.60;;
73841;SDS011;62184;52.006;5.924;2023-04-01T05:15:54;2.40;;;0.60;;
73841;SDS011;62184;52.006;5.924;2023-04-01T05:18:21;2.50;;;0.60;;
73841;SDS011;62184;52.006;5.924;2023-04-01T05:20:47;2.50;;;0.60;;
73841;SDS011;62184;52.006;5.924;2023-04-01T05:23:16;2.40;;;0.57;;
73841;SDS011;62184;52.006;5.924;2023-04-01T05:25:43;2.53;;;0.60;;
73841;SDS011;62184;52.006;5.924;2023-04-01T05:28:10;2.57;;;0.60;;
73841;SDS011;62184;52.006;5.924;2023-04-01T05:30:39;2.50;;;0.60;;
73841;SDS011;62184;52.006;5.924;2023-04-01T05:33:06;2.40;;;0.52;;
73841;SDS011;62184;52.006;5.924;2023-04-01T05:35:32;2.40;;;0.60;;
73841;SDS011;62184;52.006;5.924;2023-04-01T05:37:59;2.42;;;0.60;;
73841;SDS011;62184;52.006;5.924;2023-04-01T05:40:25;2.47;;;0.60;;
73841;SDS011;62184;52.006;5.924;2023-04-01T05:42:52;2.30;;;0.50;;
73841;SDS011;62184;52.006;5.924;2023-04-01T05:45:19;2.30;;;0.50;;
73841;SDS011;62184;52.006;5.924;2023-04-01T05:47:48;2.30;;;0.50;;
73841;SDS011;62184;52.006;5.924;2023-04-01T05:50:14;2.50;;;0.60;;
73841;SDS011;62184;52.006;5.924;2023-04-01T05:52:41;2.50;;;0.50;;
73841;SDS011;62184;52.006;5.924;2023-04-01T05:55:08;2.50;;;0.50;;
73841;SDS011;62184;52.006;5.924;2023-04-01T05:57:35;2.37;;;0.50;;
73841;SDS011;62184;52.006;5.924;2023-04-01T06:00:02;2.40;;;0.50;;
73841;SDS011;62184;52.006;5.924;2023-04-01T06:02:30;2.50;;;0.55;;
73841;SDS011;62184;52.006;5.924;2023-04-01T06:05:02;2.60;;;0.70;;
73841;SDS011;62184;52.006;5.924;2023-04-01T06:07:39;2.50;;;0.60;;
73841;SDS011;62184;52.006;5.924;2023-04-01T06:10:09;2.40;;;0.60;;
73841;SDS011;62184;52.006;5.924;2023-04-01T06:12:48;2.35;;;0.50;;
73841;SDS011;62184;52.006;5.924;2023-04-01T06:15:29;2.53;;;0.70;;
73841;SDS011;62184;52.006;5.924;2023-04-01T06:18:17;2.40;;;0.60;;
73841;SDS011;62184;52.006;5.924;2023-04-01T06:21:15;2.60;;;0.70;;
73841;SDS011;62184;52.006;5.924;2023-04-01T06:24:17;2.60;;;0.60;;
73841;SDS011;62184;52.006;5.924;2023-04-01T06:27:04;2.45;;;0.50;;
73841;SDS011;62184;52.006;5.924;2023-04-01T06:29:58;2.33;;;0.50;;
73841;SDS011;62184;52.006;5.924;2023-04-01T06:32:42;2.40;;;0.60;;
73841;SDS011;62184;52.006;5.924;2023-04-01T06:38:52;2.40;;;0.50;;
73841;SDS011;62184;52.006;5.924;2023-04-01T06:45:04;2.35;;;0.50;;
73841;SDS011;62184;52.006;5.924;2023-04-01T06:47:49;2.40;;;0.50;;
73841;SDS011;62184;52.006;5.924;2023-04-01T06:50:35;2.40;;;0.60;;
73841;SDS011;62184;52.006;5.924;2023-04-01T06:53:16;2.53;;;0.60;;
73841;SDS011;62184;52.006;5.924;2023-04-01T06:55:52;2.50;;;0.60;;
73841;SDS011;62184;52.006;5.924;2023-04-01T06:58:27;2.40;;;0.50;;
73841;SDS011;62184;52.006;5.924;2023-04-01T07:01:03;2.40;;;0.60;;
73841;SDS011;62184;52.006;5.924;2023-04-01T07:03:35;2.50;;;0.60;;
73841;SDS011;62184;52.006;5.924;2023-04-01T07:06:09;2.63;;;0.60;;
73841;SDS011;62184;52.006;5.924;2023-04-01T07:08:44;2.30;;;0.50;;
73841;SDS011;62184;52.006;5.924;2023-04-01T07:11:18;2.20;;;0.50;;
73841;SDS011;62184;52.006;5.924;2023-04-01T07:13:53;2.25;;;0.50;;
73841;SDS011;62184;52.006;5.924;2023-04-01T07:16:26;2.45;;;0.50;;
73841;SDS011;62184;52.006;5.924;2023-04-01T07:19:01;2.40;;;0.50;;
73841;SDS011;62184;52.006;5.924;2023-04-01T07:21:39;2.38;;;0.57;;
73841;SDS011;62184;52.006;5.924;2023-04-01T07:24:15;2.30;;;0.40;;
73841;SDS011;62184;52.006;5.924;2023-04-01T07:26:52;2.40;;;0.55;;
73841;SDS011;62184;52.006;5.924;2023-04-01T07:29:22;2.30;;;0.50;;
73841;SDS011;62184;52.006;5.924;2023-04-01T07:32:07;2.80;;;0.70;;
73841;SDS011;62184;52.006;5.924;2023-04-01T07:34:50;2.30;;;0.50;;
73841;SDS011;62184;52.006;5.924;2023-04-01T07:37:30;2.30;;;0.50;;
73841;SDS011;62184;52.006;5.924;2023-04-01T07:40:12;2.20;;;0.40;;
73841;SDS011;62184;52.006;5.924;2023-04-01T07:43:00;2.20;;;0.40;;
73841;SDS011;62184;52.006;5.924;2023-04-01T07:45:57;2.30;;;0.50;;
73841;SDS011;62184;52.006;5.924;2023-04-01T07:48:38;2.30;;;0.50;;
73841;SDS011;62184;52.006;5.924;2023-04-01T07:51:17;2.30;;;0.45;;
73841;SDS011;62184;52.006;5.924;2023-04-01T07:53:57;2.00;;;0.40;;
73841;SDS011;62184;52.006;5.924;2023-04-01T07:56:34;2.20;;;0.40;;
73841;SDS011;62184;52.006;5.924;2023-04-01T07:59:17;2.30;;;0.50;;
73841;SDS011;62184;52.006;5.924;2023-04-01T08:01:55;2.40;;;0.63;;
73841;SDS011;62184;52.006;5.924;2023-04-01T08:04:35;2.30;;;0.50;;
73841;SDS011;62184;52.006;5.924;2023-04-01T08:07:20;2.30;;;0.43;;
73841;SDS011;62184;52.006;5.924;2023-04-01T08:09:52;2.40;;;0.50;;
73841;SDS011;62184;52.006;5.924;2023-04-01T08:12:31;2.20;;;0.47;;
73841;SDS011;62184;52.006;5.924;2023-04-01T08:15:18;2.20;;;0.50;;
73841;SDS011;62184;52.006;5.924;2023-04-01T08:17:54;2.40;;;0.50;;
73841;SDS011;62184;52.006;5.924;2023-04-01T08:20:36;2.28;;;0.50;;
73841;SDS011;62184;52.006;5.924;2023-04-01T08:23:12;2.10;;;0.40;;
73841;SDS011;62184;52.006;5.924;2023-04-01T08:25:44;2.30;;;0.50;;
73841;SDS011;62184;52.006;5.924;2023-04-01T08:28:20;2.40;;;0.50;;
73841;SDS011;62184;52.006;5.924;2023-04-01T08:30:58;2.10;;;0.40;;
73841;SDS011;62184;52.006;5.924;2023-04-01T08:33:32;2.10;;;0.40;;
73841;SDS011;62184;52.006;5.924;2023-04-01T08:36:02;2.20;;;0.40;;
73841;SDS011;62184;52.006;5.924;2023-04-01T08:38:36;2.50;;;0.60;;
73841;SDS011;62184;52.006;5.924;2023-04-01T08:41:14;2.58;;;0.60;;
73841;SDS011;62184;52.006;5.924;2023-04-01T08:50:12;2.30;;;0.50;;
73841;SDS011;62184;52.006;5.924;2023-04-01T08:53:00;2.30;;;0.40;;
73841;SDS011;62184;52.006;5.924;2023-04-01T08:55:36;2.40;;;0.40;;
73841;SDS011;62184;52.006;5.924;2023-04-01T09:01:24;2.30;;;0.40;;
73841;SDS011;62184;52.006;5.924;2023-04-01T09:04:25;2.40;;;0.50;;
73841;SDS011;62184;52.006;5.924;2023-04-01T09:07:21;2.22;;;0.50;;
73841;SDS011;62184;52.006;5.924;2023-04-01T09:10:14;2.30;;;0.50;;
73841;SDS011;62184;52.006;5.924;2023-04-01T09:13:04;2.35;;;0.50;;
73841;SDS011;62184;52.006;5.924;2023-04-01T09:16:03;2.60;;;0.70;;
73841;SDS011;62184;52.006;5.924;2023-04-01T09:19:06;2.30;;;0.45;;
73841;SDS011;62184;52.006;5.924;2023-04-01T09:22:01;2.30;;;0.50;;
73841;SDS011;62184;52.006;5.924;2023-04-01T09:25:01;2.50;;;0.60;;
73841;SDS011;62184;52.006;5.924;2023-04-01T09:27:56;2.47;;;0.47;;
73841;SDS011;62184;52.006;5.924;2023-04-01T09:36:50;2.42;;;0.50;;
73841;SDS011;62184;52.006;5.924;2023-04-01T09:39:45;2.28;;;0.45;;
73841;SDS011;62184;52.006;5.924;2023-04-01T09:42:43;2.57;;;0.60;;
73841;SDS011;62184;52.006;5.924;2023-04-01T09:45:23;2.50;;;0.57;;
73841;SDS011;62184;52.006;5.924;2023-04-01T09:48:18;2.53;;;0.55;;
73841;SDS011;62184;52.006;5.924;2023-04-01T09:51:07;2.33;;;0.50;;
73841;SDS011;62184;52.006;5.924;2023-04-01T09:54:01;2.40;;;0.47;;
73841;SDS011;62184;52.006;5.924;2023-04-01T09:56:52;2.45;;;0.50;;
73841;SDS011;62184;52.006;5.924;2023-04-01T10:00:03;2.50;;;0.52;;
73841;SDS011;62184;52.006;5.924;2023-04-01T10:02:58;2.70;;;0.80;;
73841;SDS011;62184;52.006;5.924;2023-04-01T10:09:30;2.50;;;0.50;;
73841;SDS011;62184;52.006;5.924;2023-04-01T10:12:46;2.60;;;0.68;;
73841;SDS011;62184;52.006;5.924;2023-04-01T10:18:51;2.40;;;0.50;;
73841;SDS011;62184;52.006;5.924;2023-04-01T10:25:22;2.50;;;0.60;;
73841;SDS011;62184;52.006;5.924;2023-04-01T10:38:26;2.45;;;0.50;;
73841;SDS011;62184;52.006;5.924;2023-04-01T10:51:43;2.20;;;0.50;;
73841;SDS011;62184;52.006;5.924;2023-04-01T10:54:45;2.53;;;0.70;;
73841;SDS011;62184;52.006;5.924;2023-04-01T10:57:33;2.28;;;0.40;;
73841;SDS011;62184;52.006;5.924;2023-04-01T11:04:03;2.30;;;0.50;;
73841;SDS011;62184;52.006;5.924;2023-04-01T11:10:55;2.50;;;0.50;;
73841;SDS011;62184;52.006;5.924;2023-04-01T11:17:23;2.40;;;0.50;;
73841;SDS011;62184;52.006;5.924;2023-04-01T11:23:43;2.58;;;0.50;;
73841;SDS011;62184;52.006;5.924;2023-04-01T11:26:22;2.60;;;0.60;;
73841;SDS011;62184;52.006;5.924;2023-04-01T11:29:04;2.45;;;0.50;;
73841;SDS011;62184;52.006;5.924;2023-04-01T11:31:58;2.40;;;0.50;;
73841;SDS011;62184;52.006;5.924;2023-04-01T11:34:51;2.43;;;0.50;;
73841;SDS011;62184;52.006;5.924;2023-04-01T11:37:41;2.38;;;0.52;;
73841;SDS011;62184;52.006;5.924;2023-04-01T11:40:26;2.50;;;0.50;;
73841;SDS011;62184;52.006;5.924;2023-04-01T11:43:06;2.40;;;0.50;;
73841;SDS011;62184;52.006;5.924;2023-04-01T11:45:43;2.40;;;0.60;;
73841;SDS011;62184;52.006;5.924;2023-04-01T11:48:34;2.50;;;0.55;;
73841;SDS011;62184;52.006;5.924;2023-04-01T11:51:20;2.60;;;0.60;;
73841;SDS011;62184;52.006;5.924;2023-04-01T11:54:23;2.40;;;0.50;;
73841;SDS011;62184;52.006;5.924;2023-04-01T11:57:23;2.50;;;0.50;;
73841;SDS011;62184;52.006;5.924;2023-04-01T12:00:20;2.47;;;0.68;;
73841;SDS011;62184;52.006;5.924;2023-04-01T12:03:10;2.35;;;0.60;;
73841;SDS011;62184;52.006;5.924;2023-04-01T12:06:05;2.50;;;0.90;;
73841;SDS011;62184;52.006;5.924;2023-04-01T12:08:44;2.50;;;0.50;;
73841;SDS011;62184;52.006;5.924;2023-04-01T12:11:27;2.60;;;0.63;;
73841;SDS011;62184;52.006;5.924;2023-04-01T12:14:08;2.60;;;0.90;;
73841;SDS011;62184;52.006;5.924;2023-04-01T12:16:47;2.50;;;0.60;;
73841;SDS011;62184;52.006;5.924;2023-04-01T12:19:33;2.55;;;0.80;;
73841;SDS011;62184;52.006;5.924;2023-04-01T12:22:21;2.38;;;0.65;;
73841;SDS011;62184;52.006;5.924;2023-04-01T12:25:07;2.50;;;0.95;;
73841;SDS011;62184;52.006;5.924;2023-04-01T12:28:10;2.47;;;0.80;;
73841;SDS011;62184;52.006;5.924;2023-04-01T12:30:53;2.60;;;0.90;;
73841;SDS011;62184;52.006;5.924;2023-04-01T12:33:44;2.60;;;0.70;;
73841;SDS011;62184;52.006;5.924;2023-04-01T12:36:35;2.40;;;0.67;;
73841;SDS011;62184;52.006;5.924;2023-04-01T12:39:26;2.50;;;0.93;;
73841;SDS011;62184;52.006;5.924;2023-04-01T12:42:12;2.40;;;0.60;;
73841;SDS011;62184;52.006;5.924;2023-04-01T12:45:01;2.40;;;0.60;;
73841;SDS011;62184;52.006;5.924;2023-04-01T12:48:05;2.50;;;0.70;;
73841;SDS011;62184;52.006;5.924;2023-04-01T12:51:03;2.38;;;0.60;;
73841;SDS011;62184;52.006;5.924;2023-04-01T12:54:21;2.40;;;0.50;;
73841;SDS011;62184;52.006;5.924;2023-04-01T12:57:18;2.47;;;0.73;;
73841;SDS011;62184;52.006;5.924;2023-04-01T13:03:10;2.40;;;0.70;;
73841;SDS011;62184;52.006;5.924;2023-04-01T13:09:18;2.30;;;0.40;;
73841;SDS011;62184;52.006;5.924;2023-04-01T13:12:09;2.50;;;0.80;;
73841;SDS011;62184;52.006;5.924;2023-04-01T13:15:06;2.40;;;0.65;;
73841;SDS011;62184;52.006;5.924;2023-04-01T13:17:53;2.20;;;0.50;;
73841;SDS011;62184;52.006;5.924;2023-04-01T13:20:34;2.40;;;0.82;;
73841;SDS011;62184;52.006;5.924;2023-04-01T13:23:17;2.40;;;0.50;;
73841;SDS011;62184;52.006;5.924;2023-04-01T13:26:02;2.30;;;0.60;;
73841;SDS011;62184;52.006;5.924;2023-04-01T13:28:41;2.40;;;0.50;;
73841;SDS011;62184;52.006;5.924;2023-04-01T13:31:22;2.10;;;0.50;;
73841;SDS011;62184;52.006;5.924;2023-04-01T13:34:08;2.40;;;0.50;;
73841;SDS011;62184;52.006;5.924;2023-04-01T13:36:56;2.50;;;0.55;;
73841;SDS011;62184;52.006;5.924;2023-04-01T13:42:47;3.33;;;0.90;;
73841;SDS011;62184;52.006;5.924;2023-04-01T13:45:23;2.60;;;0.60;;
73841;SDS011;62184;52.006;5.924;2023-04-01T13:48:04;2.50;;;0.60;;
73841;SDS011;62184;52.006;5.924;2023-04-01T13:51:04;2.60;;;0.70;;
73841;SDS011;62184;52.006;5.924;2023-04-01T13:53:59;2.40;;;0.70;;
73841;SDS011;62184;52.006;5.924;2023-04-01T13:57:02;2.40;;;0.50;;
73841;SDS011;62184;52.006;5.924;2023-04-01T13:59:56;2.67;;;0.67;;
73841;SDS011;62184;52.006;5.924;2023-04-01T14:02:45;2.40;;;0.70;;
73841;SDS011;62184;52.006;5.924;2023-04-01T14:08:29;2.45;;;0.50;;
73841;SDS011;62184;52.006;5.924;2023-04-01T14:11:15;2.53;;;1.02;;
73841;SDS011;62184;52.006;5.924;2023-04-01T14:13:53;2.55;;;0.57;;
73841;SDS011;62184;52.006;5.924;2023-04-01T14:19:43;2.60;;;0.50;;
73841;SDS011;62184;52.006;5.924;2023-04-01T14:22:29;2.50;;;0.65;;
73841;SDS011;62184;52.006;5.924;2023-04-01T14:28:16;2.60;;;0.60;;
73841;SDS011;62184;52.006;5.924;2023-04-01T14:30:59;2.50;;;0.50;;
73841;SDS011;62184;52.006;5.924;2023-04-01T14:33:55;2.50;;;0.57;;
73841;SDS011;62184;52.006;5.924;2023-04-01T14:36:45;2.60;;;0.90;;
73841;SDS011;62184;52.006;5.924;2023-04-01T14:39:33;2.50;;;0.90;;
73841;SDS011;62184;52.006;5.924;2023-04-01T14:45:46;2.70;;;0.82;;
73841;SDS011;62184;52.006;5.924;2023-04-01T14:48:56;2.50;;;0.70;;
73841;SDS011;62184;52.006;5.924;2023-04-01T14:51:29;2.50;;;0.50;;
73841;SDS011;62184;52.006;5.924;2023-04-01T14:54:02;2.50;;;0.98;;
73841;SDS011;62184;52.006;5.924;2023-04-01T14:56:38;2.35;;;0.52;;
73841;SDS011;62184;52.006;5.924;2023-04-01T14:59:13;2.50;;;0.60;;
73841;SDS011;62184;52.006;5.924;2023-04-01T15:01:53;2.50;;;0.63;;
73841;SDS011;62184;52.006;5.924;2023-04-01T15:04:33;2.60;;;0.80;;
73841;SDS011;62184;52.006;5.924;2023-04-01T15:07:27;2.50;;;0.50;;
73841;SDS011;62184;52.006;5.924;2023-04-01T15:10:39;2.50;;;0.50;;
73841;SDS011;62184;52.006;5.924;2023-04-01T15:13:29;2.40;;;0.57;;
73841;SDS011;62184;52.006;5.924;2023-04-01T15:16:44;2.60;;;0.70;;
73841;SDS011;62184;52.006;5.924;2023-04-01T15:19:29;2.70;;;0.60;;
73841;SDS011;62184;52.006;5.924;2023-04-01T15:28:11;2.70;;;0.80;;
73841;SDS011;62184;52.006;5.924;2023-04-01T15:30:54;2.60;;;0.60;;
73841;SDS011;62184;52.006;5.924;2023-04-01T15:33:36;2.80;;;1.00;;
73841;SDS011;62184;52.006;5.924;2023-04-01T15:36:20;2.80;;;1.00;;
73841;SDS011;62184;52.006;5.924;2023-04-01T15:39:09;2.70;;;0.90;;
73841;SDS011;62184;52.006;5.924;2023-04-01T15:41:48;2.70;;;0.77;;
73841;SDS011;62184;52.006;5.924;2023-04-01T15:44:46;2.70;;;0.90;;
73841;SDS011;62184;52.006;5.924;2023-04-01T15:47:33;2.63;;;0.80;;
73841;SDS011;62184;52.006;5.924;2023-04-01T15:50:19;2.88;;;0.98;;
73841;SDS011;62184;52.006;5.924;2023-04-01T15:53:15;2.90;;;1.10;;
73841;SDS011;62184;52.006;5.924;2023-04-01T15:56:06;2.60;;;0.70;;
73841;SDS011;62184;52.006;5.924;2023-04-01T15:58:48;2.63;;;0.73;;
73841;SDS011;62184;52.006;5.924;2023-04-01T16:01:30;2.75;;;0.93;;
73841;SDS011;62184;52.006;5.924;2023-04-01T16:04:16;2.75;;;0.88;;
73841;SDS011;62184;52.006;5.924;2023-04-01T16:07:07;2.83;;;1.10;;
73841;SDS011;62184;52.006;5.924;2023-04-01T16:09:48;3.00;;;0.90;;
73841;SDS011;62184;52.006;5.924;2023-04-01T16:12:34;2.80;;;0.80;;
73841;SDS011;62184;52.006;5.924;2023-04-01T16:15:21;2.70;;;0.75;;
73841;SDS011;62184;52.006;5.924;2023-04-01T16:18:16;2.70;;;0.85;;
73841;SDS011;62184;52.006;5.924;2023-04-01T16:21:07;2.60;;;0.60;;
73841;SDS011;62184;52.006;5.924;2023-04-01T16:23:50;2.70;;;0.93;;
73841;SDS011;62184;52.006;5.924;2023-04-01T16:26:24;3.00;;;1.10;;
73841;SDS011;62184;52.006;5.924;2023-04-01T16:29:02;2.70;;;0.80;;
73841;SDS011;62184;52.006;5.924;2023-04-01T16:31:46;2.75;;;0.85;;
73841;SDS011;62184;52.006;5.924;2023-04-01T16:34:22;2.80;;;0.80;;
73841;SDS011;62184;52.006;5.924;2023-04-01T16:37:00;2.83;;;1.00;;
73841;SDS011;62184;52.006;5.924;2023-04-01T16:39:41;2.70;;;0.82;;
73841;SDS011;62184;52.006;5.924;2023-04-01T16:42:25;2.80;;;0.88;;
73841;SDS011;62184;52.006;5.924;2023-04-01T16:45:15;2.80;;;0.90;;
73841;SDS011;62184;52.006;5.924;2023-04-01T16:47:58;2.80;;;1.00;;
73841;SDS011;62184;52.006;5.924;2023-04-01T16:50:42;2.70;;;0.70;;
73841;SDS011;62184;52.006;5.924;2023-04-01T16:53:22;2.60;;;0.80;;
73841;SDS011;62184;52.006;5.924;2023-04-01T16:56:10;2.60;;;0.70;;
73841;SDS011;62184;52.006;5.924;2023-04-01T16:58:56;2.90;;;1.00;;
73841;SDS011;62184;52.006;5.924;2023-04-01T17:01:36;3.00;;;0.80;;
73841;SDS011;62184;52.006;5.924;2023-04-01T17:04:12;2.70;;;1.00;;
73841;SDS011;62184;52.006;5.924;2023-04-01T17:06:52;2.80;;;0.90;;
73841;SDS011;62184;52.006;5.924;2023-04-01T17:09:30;3.00;;;1.30;;
73841;SDS011;62184;52.006;5.924;2023-04-01T17:12:20;2.80;;;1.00;;
73841;SDS011;62184;52.006;5.924;2023-04-01T17:14:59;2.90;;;0.90;;
73841;SDS011;62184;52.006;5.924;2023-04-01T17:17:40;2.88;;;1.02;;
73841;SDS011;62184;52.006;5.924;2023-04-01T17:20:26;2.72;;;0.80;;
73841;SDS011;62184;52.006;5.924;2023-04-01T17:23:09;2.90;;;1.10;;
73841;SDS011;62184;52.006;5.924;2023-04-01T17:25:47;3.10;;;1.40;;
73841;SDS011;62184;52.006;5.924;2023-04-01T17:28:31;2.90;;;1.10;;
73841;SDS011;62184;52.006;5.924;2023-04-01T17:31:14;2.90;;;1.07;;
73841;SDS011;62184;52.006;5.924;2023-04-01T17:34:00;2.80;;;1.10;;
73841;SDS011;62184;52.006;5.924;2023-04-01T17:37:01;2.60;;;0.80;;
73841;SDS011;62184;52.006;5.924;2023-04-01T17:39:53;2.97;;;1.27;;